Ah Gwah Ching, MN

6:23 AM CST on February 13, 2016 (GMT -0600)
Ten Mile Lake | | Change Station
CLOSE
Current Station
Personal Weather Station
Location: Hackensack, MN
Elevation: 1352 ft
Nearby Weather Stations
Active Advisory: Wind Chill Advisory

Elev 1352 ft 47.00 °N, 94.56 °W | Updated 8 minutes ago

Mostly Cloudy
Mostly Cloudy
-20.8 °F
Feels Like -21 °F
N
0.0
Wind Variable Wind from WNW
Gusts 0.0 mph

Today
High -- | Low -- °F
--% Chance of Precip.
Yesterday
High -- | Low -- °F
Precip. -- in
Pressure 30.55 in
Visibility 10.0 miles
Clouds Clear
Windchill -21 °F
Dew Point -26 °F
Humidity 78%
Rainfall 0.00 in
Snow Depth Not available.
7:26 AM 5:38 PM
Waxing Crescent, 30% visible
METAR KXVG 131217Z AUTO 00000KT 10SM CLR M31/M34 A3055 RMK AO2
Pressure 30.55 in
Visibility 10.0 miles
Clouds Clear
Windchill -21 °F
Dew Point -26 °F
Humidity 78%
Rainfall 0.00 in
Snow Depth Not available.
7:26 AM 5:38 PM
Waxing Crescent, 30% visible
METAR KXVG 131217Z AUTO 00000KT 10SM CLR M31/M34 A3055 RMK AO2

10-Day Weather Forecast

Almanac

Astronomy

Feb. 13, 2016 Rise Set
Actual Time
Civil Twilight
Nautical Twilight
Astronomical Twilight
Moon
Length of Visible Light
Length of Day
Tomorrow will be .
, % of the Moon is Illuminated

Today's Extremes

State Highs State Lows

Community

WunderPhotos

Upload Photos

1,892,543 photos uploaded!

WunderBlog® & News

Nearby

Air Quality

  Air Quality AQ Index Pollutant
Not available.

Snow Depth

Station Depth Elevation

Earthquake Activity

City Distance Mag. Time & Date
Minimum magnitude displayed is 2.5.

Coastal Water Temperatures

Place Temperature

Stations

Nearby Weather Stations

Station Location Temp. Windchill Dew Point Humidity Wind Precip. Elev Updated Type
                   

Watches & Warnings

Wind Chill Advisory
Issued: 3:39 AM CST Feb. 13, 2016 – National Weather Service

... Wind Chill Advisory remains in effect until 9 am CST this
morning...

* wind chill values... expect wind chills to range from 20 below
zero to 40 below zero through this morning.

* Impacts... the cold wind chills can cause frostbite on exposed
skin in as little as 15 to 30 minutes.

Precautionary/preparedness actions...

A Wind Chill Advisory means that cold air and the wind will
combine to create low wind chills. Frost bite and hypothermia can
occur if precautions are not taken. Make sure you wear a hat and
gloves.